Time;durP1;ratioP1;P1;durP2;ratioP2;P2;SDS_P1;SDS_P2;PMS_P1;PMS_P2;Temp;Humidity;BMP_temperature;BMP_pressure;BME280_temperature;BME280_humidity;BME280_pressure;Samples;Min_cycle;Max_cycle;Signal;HPM_P1;HPM_P2
2023/03/22 00:00:15;;;;;;;;;3.00;2.00;;;;;;;;5103015;27;9546;-73
2023/03/22 00:02:40;;;;;;;;;2.75;2.75;;;;;;;;5097430;27;8777;-73
2023/03/22 00:05:06;;;;;;;;;1.25;1.25;;;;;;;;5119261;27;9890;-72
2023/03/22 00:07:31;;;;;;;;;1.75;1.75;;;;;;;;5117761;27;9629;-73
2023/03/22 00:09:56;;;;;;;;;3.00;0.75;;;;;;;;5095687;28;8823;-72
2023/03/22 00:12:22;;;;;;;;;1.75;1.75;;;;;;;;5104727;28;9623;-72
2023/03/22 00:14:48;;;;;;;;;1.25;0.75;;;;;;;;5091311;28;8787;-72
2023/03/22 00:17:13;;;;;;;;;1.25;0.00;;;;;;;;5092649;28;8804;-72
2023/03/22 00:19:41;;;;;;;;;1.75;1.75;;;;;;;;5092706;28;10319;-72
2023/03/22 00:22:07;;;;;;;;;2.75;1.75;;;;;;;;5092989;28;8772;-72
2023/03/22 00:24:32;;;;;;;;;3.25;2.75;;;;;;;;5093051;28;10560;-72
2023/03/22 00:26:57;;;;;;;;;1.00;1.00;;;;;;;;5092731;28;9720;-72
2023/03/22 00:29:23;;;;;;;;;3.50;2.50;;;;;;;;5092587;28;8795;-72
2023/03/22 00:31:48;;;;;;;;;3.25;3.25;;;;;;;;5092580;28;8800;-72
2023/03/22 00:34:14;;;;;;;;;2.25;2.25;;;;;;;;5092487;28;8799;-71
2023/03/22 00:36:39;;;;;;;;;3.00;3.00;;;;;;;;5092247;28;8823;-72
2023/03/22 00:39:04;;;;;;;;;4.00;2.00;;;;;;;;5091300;28;9608;-72
2023/03/22 00:41:30;;;;;;;;;3.25;2.00;;;;;;;;5093253;28;8869;-72
2023/03/22 00:43:55;;;;;;;;;1.50;1.50;;;;;;;;5111313;28;8805;-73
2023/03/22 00:46:20;;;;;;;;;2.00;1.75;;;;;;;;5112391;28;8804;-73
2023/03/22 00:48:46;;;;;;;;;5.75;3.50;;;;;;;;5111454;28;9463;-74
2023/03/22 00:51:11;;;;;;;;;3.50;2.75;;;;;;;;5113080;27;8817;-73
2023/03/22 00:53:37;;;;;;;;;3.00;1.75;;;;;;;;5113139;27;8889;-74
2023/03/22 00:56:04;;;;;;;;;1.00;1.00;;;;;;;;5111870;28;8809;-74
2023/03/22 00:58:29;;;;;;;;;2.00;2.00;;;;;;;;5113111;27;11050;-73
2023/03/22 01:00:54;;;;;;;;;3.25;2.00;;;;;;;;5112883;28;9877;-73
2023/03/22 01:03:20;;;;;;;;;2.50;1.25;;;;;;;;5112777;28;9623;-74
2023/03/22 01:05:48;;;;;;;;;1.00;1.00;;;;;;;;5111994;28;8781;-74
2023/03/22 01:08:13;;;;;;;;;2.50;2.50;;;;;;;;5111859;28;10161;-74
2023/03/22 01:10:39;;;;;;;;;1.00;1.00;;;;;;;;5113182;27;10057;-74
2023/03/22 01:13:05;;;;;;;;;2.50;1.75;;;;;;;;5112967;27;8773;-73
2023/03/22 01:15:31;;;;;;;;;2.75;2.00;;;;;;;;5112309;27;9776;-74
2023/03/22 01:17:56;;;;;;;;;2.00;1.00;;;;;;;;5112951;27;11457;-73
2023/03/22 01:20:22;;;;;;;;;4.00;2.00;;;;;;;;5112466;27;8780;-74
2023/03/22 01:22:47;;;;;;;;;1.00;1.00;;;;;;;;5111755;28;8878;-73
2023/03/22 01:25:13;;;;;;;;;5.25;2.00;;;;;;;;5112158;28;8887;-74
2023/03/22 01:27:38;;;;;;;;;0.25;0.25;;;;;;;;5112333;27;8808;-73
2023/03/22 01:30:04;;;;;;;;;4.00;2.00;;;;;;;;5112187;28;8827;-74
2023/03/22 01:32:29;;;;;;;;;4.50;1.50;;;;;;;;5112661;27;8777;-74
2023/03/22 01:34:54;;;;;;;;;3.00;1.00;;;;;;;;5112209;28;8785;-74
2023/03/22 01:37:20;;;;;;;;;1.00;1.00;;;;;;;;5112559;27;8824;-74
2023/03/22 01:39:46;;;;;;;;;0.50;0.50;;;;;;;;5112258;27;8880;-74
2023/03/22 01:42:12;;;;;;;;;1.00;1.00;;;;;;;;5118958;27;9833;-75
2023/03/22 01:44:37;;;;;;;;;2.00;1.00;;;;;;;;5131874;27;8777;-74
2023/03/22 01:47:03;;;;;;;;;2.00;2.00;;;;;;;;5128574;27;9659;-74
2023/03/22 01:49:33;;;;;;;;;3.75;2.75;;;;;;;;5110406;28;8801;-74
2023/03/22 01:52:00;;;;;;;;;1.00;0.25;;;;;;;;5110317;27;8803;-74
2023/03/22 01:54:41;;;;;;;;;2.75;1.00;;;;;;;;5111657;27;9689;-76
2023/03/22 01:57:06;;;;;;;;;1.75;1.75;;;;;;;;5111321;28;9956;-74
2023/03/22 01:59:31;;;;;;;;;3.00;1.75;;;;;;;;5111756;28;9812;-74
2023/03/22 02:02:01;;;;;;;;;1.75;0.00;;;;;;;;5111337;28;8899;-74
2023/03/22 02:04:32;;;;;;;;;2.00;1.00;;;;;;;;5111317;27;8777;-74
2023/03/22 02:06:59;;;;;;;;;2.00;2.00;;;;;;;;5111590;27;9612;-74
2023/03/22 02:09:24;;;;;;;;;1.00;0.00;;;;;;;;5111378;27;9833;-74
2023/03/22 02:11:52;;;;;;;;;1.00;1.00;;;;;;;;5111585;27;9840;-73
2023/03/22 02:14:36;;;;;;;;;0.25;0.25;;;;;;;;5111541;28;8785;-73
2023/03/22 02:17:16;;;;;;;;;1.00;1.00;;;;;;;;5111257;27;9735;-74
2023/03/22 02:19:56;;;;;;;;;1.00;1.00;;;;;;;;5111518;28;9673;-74
2023/03/22 02:22:41;;;;;;;;;1.25;1.25;;;;;;;;5110359;28;9546;-74
2023/03/22 02:25:06;;;;;;;;;0.75;0.00;;;;;;;;5110012;28;9862;-74
2023/03/22 02:27:47;;;;;;;;;2.50;1.00;;;;;;;;5111452;28;9689;-74
2023/03/22 02:30:15;;;;;;;;;2.00;2.00;;;;;;;;5111365;27;8772;-74
2023/03/22 02:32:40;;;;;;;;;3.75;1.00;;;;;;;;5111538;28;9760;-73
2023/03/22 02:35:18;;;;;;;;;1.00;1.00;;;;;;;;5111216;28;9801;-74
2023/03/22 02:37:49;;;;;;;;;5.25;2.00;;;;;;;;5111397;28;8769;-74
2023/03/22 02:40:23;;;;;;;;;2.25;1.00;;;;;;;;5111384;27;9818;-74
2023/03/22 02:42:56;;;;;;;;;1.00;1.00;;;;;;;;5111129;28;9782;-73
2023/03/22 02:45:22;;;;;;;;;2.00;1.00;;;;;;;;5111016;27;9800;-74
2023/03/22 02:48:07;;;;;;;;;3.00;2.00;;;;;;;;5111188;28;9799;-74
2023/03/22 02:50:45;;;;;;;;;1.75;1.75;;;;;;;;5110528;28;8777;-74
2023/03/22 02:53:20;;;;;;;;;3.00;1.50;;;;;;;;5109853;28;9707;-73
2023/03/22 02:55:59;;;;;;;;;3.00;1.00;;;;;;;;5111158;27;9661;-73
2023/03/22 02:58:27;;;;;;;;;1.75;1.00;;;;;;;;5110892;27;9596;-74
2023/03/22 03:00:55;;;;;;;;;5.25;2.00;;;;;;;;5109530;28;10536;-74
2023/03/22 03:03:23;;;;;;;;;1.00;1.00;;;;;;;;5112828;28;10024;-74
2023/03/22 03:05:51;;;;;;;;;2.00;1.75;;;;;;;;5114556;27;9688;-74
2023/03/22 03:08:17;;;;;;;;;1.25;1.00;;;;;;;;5113176;28;9725;-74
2023/03/22 03:10:42;;;;;;;;;1.50;1.00;;;;;;;;5114544;27;9941;-74
2023/03/22 03:13:15;;;;;;;;;4.00;1.00;;;;;;;;5113751;27;8888;-74
2023/03/22 03:15:42;;;;;;;;;1.00;1.00;;;;;;;;5114062;27;9598;-74
2023/03/22 03:18:26;;;;;;;;;1.00;1.00;;;;;;;;5113242;28;9772;-74
2023/03/22 03:21:03;;;;;;;;;2.75;1.00;;;;;;;;5114515;28;9833;-74
2023/03/22 03:23:34;;;;;;;;;1.00;1.00;;;;;;;;5113196;28;9749;-74
2023/03/22 03:26:00;;;;;;;;;1.00;1.00;;;;;;;;5114286;28;9828;-74
2023/03/22 03:28:42;;;;;;;;;2.00;1.00;;;;;;;;5114211;27;9979;-73
2023/03/22 03:31:07;;;;;;;;;1.00;1.00;;;;;;;;5114249;27;8777;-74
2023/03/22 03:33:34;;;;;;;;;3.00;2.00;;;;;;;;5114065;28;9651;-74
2023/03/22 03:36:02;;;;;;;;;1.00;1.00;;;;;;;;5114075;27;8873;-74
2023/03/22 03:38:30;;;;;;;;;1.75;1.75;;;;;;;;5114185;27;9682;-74
2023/03/22 03:41:01;;;;;;;;;2.50;2.50;;;;;;;;5114424;27;9787;-74
2023/03/22 03:43:26;;;;;;;;;1.00;1.00;;;;;;;;5113888;27;9801;-74
2023/03/22 03:45:53;;;;;;;;;2.00;1.00;;;;;;;;5112870;28;9878;-74
2023/03/22 03:48:20;;;;;;;;;3.50;1.25;;;;;;;;5114276;27;9540;-74
2023/03/22 03:50:46;;;;;;;;;0.75;0.75;;;;;;;;5114314;27;9793;-74
2023/03/22 03:53:11;;;;;;;;;1.75;0.75;;;;;;;;5114192;28;9512;-74
2023/03/22 03:55:36;;;;;;;;;0.75;0.75;;;;;;;;5114148;28;9669;-74
2023/03/22 03:58:02;;;;;;;;;1.00;1.00;;;;;;;;5112180;28;8793;-74
2023/03/22 04:00:27;;;;;;;;;0.00;0.00;;;;;;;;5114075;27;8819;-74
2023/03/22 04:02:52;;;;;;;;;1.00;1.00;;;;;;;;5113799;28;8835;-74
2023/03/22 04:05:17;;;;;;;;;1.00;0.00;;;;;;;;5112320;28;8801;-74
2023/03/22 04:07:43;;;;;;;;;1.00;1.00;;;;;;;;5113811;28;8777;-74
2023/03/22 04:10:08;;;;;;;;;3.00;1.00;;;;;;;;5113570;28;8784;-74
2023/03/22 04:12:34;;;;;;;;;1.50;0.25;;;;;;;;5111937;28;8812;-74
2023/03/22 04:14:59;;;;;;;;;3.25;1.00;;;;;;;;5112470;27;8815;-74
2023/03/22 04:17:28;;;;;;;;;1.00;1.00;;;;;;;;5112418;28;8824;-74
2023/03/22 04:19:55;;;;;;;;;0.25;0.25;;;;;;;;5113435;27;8773;-74
2023/03/22 04:22:20;;;;;;;;;2.25;0.00;;;;;;;;5113773;27;9839;-74
2023/03/22 04:24:48;;;;;;;;;0.50;0.00;;;;;;;;5113443;27;10482;-74
2023/03/22 04:27:14;;;;;;;;;0.75;0.75;;;;;;;;5113544;27;8799;-74
2023/03/22 04:29:40;;;;;;;;;0.00;0.00;;;;;;;;5113489;27;10530;-74
2023/03/22 04:32:05;;;;;;;;;1.00;0.00;;;;;;;;5113384;27;11360;-74
2023/03/22 04:34:30;;;;;;;;;1.00;0.00;;;;;;;;5113971;28;8789;-75
2023/03/22 04:36:56;;;;;;;;;0.00;0.00;;;;;;;;5113653;27;8935;-74
2023/03/22 04:39:21;;;;;;;;;0.50;0.50;;;;;;;;5113686;27;8773;-74
2023/03/22 04:41:46;;;;;;;;;0.00;0.00;;;;;;;;5117419;27;8786;-75
2023/03/22 04:44:11;;;;;;;;;0.00;0.00;;;;;;;;5135089;27;8812;-75
2023/03/22 04:46:37;;;;;;;;;1.00;0.00;;;;;;;;5134814;27;8790;-75
2023/03/22 04:49:05;;;;;;;;;0.00;0.00;;;;;;;;5135551;27;8802;-74
2023/03/22 04:51:31;;;;;;;;;0.00;0.00;;;;;;;;5134261;27;8855;-74
2023/03/22 04:53:56;;;;;;;;;1.25;0.25;;;;;;;;5133772;27;9554;-74
2023/03/22 04:56:21;;;;;;;;;4.00;1.00;;;;;;;;5133756;27;9573;-74
2023/03/22 04:58:47;;;;;;;;;0.00;0.00;;;;;;;;5133393;27;8794;-74
2023/03/22 05:01:13;;;;;;;;;5.00;0.00;;;;;;;;5133405;27;8790;-74
2023/03/22 05:03:38;;;;;;;;;1.00;1.00;;;;;;;;5133655;27;8763;-74
2023/03/22 05:06:05;;;;;;;;;0.50;0.00;;;;;;;;5133604;27;9696;-74
2023/03/22 05:08:31;;;;;;;;;1.00;1.00;;;;;;;;5133496;27;8811;-75
2023/03/22 05:10:57;;;;;;;;;0.50;0.50;;;;;;;;5133310;27;9617;-74
2023/03/22 05:13:23;;;;;;;;;0.00;0.00;;;;;;;;5133445;27;8786;-74
2023/03/22 05:15:48;;;;;;;;;1.00;1.00;;;;;;;;5133231;27;9717;-74
2023/03/22 05:18:14;;;;;;;;;0.00;0.00;;;;;;;;5133154;27;9648;-74
2023/03/22 05:20:40;;;;;;;;;0.75;0.75;;;;;;;;5133037;27;8786;-74
2023/03/22 05:23:05;;;;;;;;;1.00;1.00;;;;;;;;5133062;27;8859;-74
2023/03/22 05:25:31;;;;;;;;;0.00;0.00;;;;;;;;5132672;27;9585;-75
2023/03/22 05:28:00;;;;;;;;;2.00;1.00;;;;;;;;5132778;27;9552;-74
2023/03/22 05:30:29;;;;;;;;;0.00;0.00;;;;;;;;5133052;27;8762;-74
2023/03/22 05:32:59;;;;;;;;;0.50;0.25;;;;;;;;5132643;27;9525;-73
2023/03/22 05:35:25;;;;;;;;;0.25;0.00;;;;;;;;5132656;27;10296;-73
2023/03/22 05:37:51;;;;;;;;;2.50;1.00;;;;;;;;5132714;27;9475;-75
2023/03/22 05:40:17;;;;;;;;;0.25;0.25;;;;;;;;5132781;27;9570;-73
2023/03/22 05:42:42;;;;;;;;;1.25;1.25;;;;;;;;5112088;27;9815;-73
2023/03/22 05:45:08;;;;;;;;;1.00;1.00;;;;;;;;5112560;27;9843;-73
2023/03/22 05:47:33;;;;;;;;;0.75;0.75;;;;;;;;5112265;27;8823;-73
2023/03/22 05:49:59;;;;;;;;;1.00;0.00;;;;;;;;5112135;27;8773;-73
2023/03/22 05:52:24;;;;;;;;;1.75;0.00;;;;;;;;5112232;27;8768;-73
2023/03/22 05:54:49;;;;;;;;;2.75;1.00;;;;;;;;5111768;28;8789;-73
2023/03/22 05:57:16;;;;;;;;;1.50;0.25;;;;;;;;5111821;27;8789;-74
2023/03/22 05:59:41;;;;;;;;;1.00;1.00;;;;;;;;5112205;27;8787;-75
2023/03/22 06:02:06;;;;;;;;;1.00;0.50;;;;;;;;5111904;28;9685;-73
2023/03/22 06:04:32;;;;;;;;;2.75;0.50;;;;;;;;5111909;28;8824;-73
2023/03/22 06:06:57;;;;;;;;;4.25;1.00;;;;;;;;5104225;28;8834;-73
2023/03/22 06:09:22;;;;;;;;;2.00;1.00;;;;;;;;5091244;28;8783;-72
2023/03/22 06:11:47;;;;;;;;;3.00;1.00;;;;;;;;5091160;28;8803;-75
2023/03/22 06:14:12;;;;;;;;;0.25;0.25;;;;;;;;5090907;28;8940;-74
2023/03/22 06:16:38;;;;;;;;;0.50;0.00;;;;;;;;5090289;28;8891;-72
2023/03/22 06:19:03;;;;;;;;;1.00;1.00;;;;;;;;5091054;28;8795;-73
2023/03/22 06:21:28;;;;;;;;;0.50;0.50;;;;;;;;5091151;28;8784;-73
2023/03/22 06:23:53;;;;;;;;;1.50;1.00;;;;;;;;5091026;28;9534;-74
2023/03/22 06:26:18;;;;;;;;;2.75;1.25;;;;;;;;5091324;28;8853;-74
2023/03/22 06:28:44;;;;;;;;;2.25;1.25;;;;;;;;5091180;28;9547;-74
2023/03/22 06:31:09;;;;;;;;;1.00;1.00;;;;;;;;5091236;28;8869;-74
2023/03/22 06:33:35;;;;;;;;;1.75;1.75;;;;;;;;5090737;28;8834;-74
2023/03/22 06:36:00;;;;;;;;;2.25;2.25;;;;;;;;5090616;28;8811;-74
2023/03/22 06:38:26;;;;;;;;;2.25;1.00;;;;;;;;5101129;28;8831;-75
2023/03/22 06:40:51;;;;;;;;;3.75;1.25;;;;;;;;5118172;27;9448;-73
2023/03/22 06:43:16;;;;;;;;;2.00;0.75;;;;;;;;5117299;27;8899;-73
2023/03/22 06:45:41;;;;;;;;;3.25;1.75;;;;;;;;5117897;28;8812;-73
2023/03/22 06:48:07;;;;;;;;;2.00;1.00;;;;;;;;5118059;28;8803;-72
2023/03/22 06:50:35;;;;;;;;;1.00;1.00;;;;;;;;5117841;28;8881;-72
2023/03/22 06:53:00;;;;;;;;;2.25;2.00;;;;;;;;5116297;28;8854;-72
2023/03/22 06:55:25;;;;;;;;;1.00;1.00;;;;;;;;5117789;28;9719;-73
2023/03/22 06:57:51;;;;;;;;;3.50;3.50;;;;;;;;5118146;28;8860;-73
2023/03/22 07:00:16;;;;;;;;;2.00;2.00;;;;;;;;5118185;28;8777;-72
2023/03/22 07:02:41;;;;;;;;;3.00;3.00;;;;;;;;5117859;27;8903;-73
2023/03/22 07:05:07;;;;;;;;;1.75;1.25;;;;;;;;5117965;28;8777;-72
2023/03/22 07:07:32;;;;;;;;;3.25;1.75;;;;;;;;5117747;27;8797;-73
2023/03/22 07:09:57;;;;;;;;;4.50;3.00;;;;;;;;5117799;28;8829;-73
2023/03/22 07:12:22;;;;;;;;;3.00;2.25;;;;;;;;5116489;28;8811;-73
2023/03/22 07:14:48;;;;;;;;;1.50;1.50;;;;;;;;5117855;28;8781;-72
2023/03/22 07:17:13;;;;;;;;;2.00;2.00;;;;;;;;5117552;28;8816;-72
2023/03/22 07:19:39;;;;;;;;;4.75;3.75;;;;;;;;5117653;28;8773;-73
2023/03/22 07:22:04;;;;;;;;;4.75;3.75;;;;;;;;5117588;27;9598;-73
2023/03/22 07:24:30;;;;;;;;;3.25;3.00;;;;;;;;5117682;28;9779;-73
2023/03/22 07:26:55;;;;;;;;;8.75;4.00;;;;;;;;5117375;28;8788;-72
2023/03/22 07:29:20;;;;;;;;;3.00;2.00;;;;;;;;5116195;28;8768;-72
2023/03/22 07:31:46;;;;;;;;;5.50;2.50;;;;;;;;5117498;27;8852;-73
2023/03/22 07:34:11;;;;;;;;;4.50;2.50;;;;;;;;5117578;28;8804;-73
2023/03/22 07:36:37;;;;;;;;;2.50;2.50;;;;;;;;5115842;28;8828;-73
2023/03/22 07:39:04;;;;;;;;;4.00;2.00;;;;;;;;5117500;27;8777;-72
2023/03/22 07:41:29;;;;;;;;;4.50;2.00;;;;;;;;5117483;27;8776;-73
2023/03/22 07:43:55;;;;;;;;;3.00;1.50;;;;;;;;5117391;28;9684;-73
2023/03/22 07:46:20;;;;;;;;;2.00;2.00;;;;;;;;5117642;28;8788;-72
2023/03/22 07:48:45;;;;;;;;;4.50;3.00;;;;;;;;5114461;28;8831;-72
2023/03/22 07:51:10;;;;;;;;;4.00;2.25;;;;;;;;5113728;28;8777;-73
2023/03/22 07:53:35;;;;;;;;;1.00;1.00;;;;;;;;5114223;28;8781;-72
2023/03/22 07:56:02;;;;;;;;;3.00;3.00;;;;;;;;5113870;28;8915;-72
2023/03/22 07:58:27;;;;;;;;;2.00;2.00;;;;;;;;5113922;27;8785;-72
2023/03/22 08:00:52;;;;;;;;;3.25;2.50;;;;;;;;5114018;28;9680;-73
2023/03/22 08:03:18;;;;;;;;;3.00;3.00;;;;;;;;5114198;28;8811;-72
2023/03/22 08:05:43;;;;;;;;;2.75;2.75;;;;;;;;5112623;28;8777;-72
2023/03/22 08:08:09;;;;;;;;;3.00;3.00;;;;;;;;5112244;28;8805;-73
2023/03/22 08:10:34;;;;;;;;;3.25;2.00;;;;;;;;5112328;27;8792;-73
2023/03/22 08:13:00;;;;;;;;;4.00;3.00;;;;;;;;5112477;28;9870;-73
2023/03/22 08:15:25;;;;;;;;;3.00;3.00;;;;;;;;5112527;27;8889;-73
2023/03/22 08:17:50;;;;;;;;;1.75;1.75;;;;;;;;5112211;27;8828;-72
2023/03/22 08:20:17;;;;;;;;;4.25;3.25;;;;;;;;5112161;28;8792;-73
2023/03/22 08:22:43;;;;;;;;;1.50;1.50;;;;;;;;5112501;27;8757;-73
2023/03/22 08:25:08;;;;;;;;;2.75;2.25;;;;;;;;5112174;28;10458;-73
2023/03/22 08:27:34;;;;;;;;;5.75;3.00;;;;;;;;5112242;27;8792;-72
2023/03/22 08:29:59;;;;;;;;;5.00;2.75;;;;;;;;5110901;28;8796;-73
2023/03/22 08:32:25;;;;;;;;;3.00;3.00;;;;;;;;5112372;27;8757;-73
2023/03/22 08:34:51;;;;;;;;;2.00;2.00;;;;;;;;5111901;27;9528;-73
2023/03/22 08:37:19;;;;;;;;;2.25;2.25;;;;;;;;5112016;27;8816;-73
2023/03/22 08:39:44;;;;;;;;;8.00;3.00;;;;;;;;5112470;27;9773;-74
2023/03/22 08:42:09;;;;;;;;;3.50;2.00;;;;;;;;5112119;27;9876;-74
2023/03/22 08:44:35;;;;;;;;;2.00;2.00;;;;;;;;5112045;28;8777;-74
2023/03/22 08:47:01;;;;;;;;;3.25;1.50;;;;;;;;5112072;27;8781;-74
2023/03/22 08:49:26;;;;;;;;;4.25;3.25;;;;;;;;5111941;27;8815;-74
2023/03/22 08:51:51;;;;;;;;;2.50;1.75;;;;;;;;5111949;27;8784;-74
2023/03/22 08:54:17;;;;;;;;;3.00;1.00;;;;;;;;5112000;28;8899;-74
2023/03/22 08:56:42;;;;;;;;;2.50;2.50;;;;;;;;5111758;27;8955;-74
2023/03/22 08:59:08;;;;;;;;;5.50;3.50;;;;;;;;5111722;28;8945;-74
2023/03/22 09:01:34;;;;;;;;;2.75;2.75;;;;;;;;5111500;27;8749;-74
2023/03/22 09:04:00;;;;;;;;;3.25;2.00;;;;;;;;5111615;27;9840;-74
2023/03/22 09:06:25;;;;;;;;;2.00;1.50;;;;;;;;5111669;27;9788;-73
2023/03/22 09:08:51;;;;;;;;;3.75;2.75;;;;;;;;5110205;28;9027;-73
2023/03/22 09:11:17;;;;;;;;;1.75;1.75;;;;;;;;5109637;28;8784;-73
2023/03/22 09:13:42;;;;;;;;;2.25;2.25;;;;;;;;5111507;27;8800;-73
2023/03/22 09:16:08;;;;;;;;;2.00;2.00;;;;;;;;5109298;28;8816;-73
2023/03/22 09:18:33;;;;;;;;;3.50;3.50;;;;;;;;5111557;27;8780;-74
2023/03/22 09:20:59;;;;;;;;;4.75;3.00;;;;;;;;5111567;27;8788;-73
2023/03/22 09:23:24;;;;;;;;;4.00;3.25;;;;;;;;5110656;27;8923;-74
2023/03/22 09:25:50;;;;;;;;;4.00;3.00;;;;;;;;5110835;28;8807;-73
2023/03/22 09:28:15;;;;;;;;;1.00;1.00;;;;;;;;5111255;27;8819;-73
2023/03/22 09:30:41;;;;;;;;;3.00;3.00;;;;;;;;5111085;27;8789;-73
2023/03/22 09:33:06;;;;;;;;;4.50;3.50;;;;;;;;5111185;27;8784;-74
2023/03/22 09:35:32;;;;;;;;;3.00;2.00;;;;;;;;5111164;27;8812;-74
2023/03/22 09:37:58;;;;;;;;;3.50;3.50;;;;;;;;5110935;27;8840;-73
2023/03/22 09:40:27;;;;;;;;;6.75;3.00;;;;;;;;5111245;27;8811;-72
2023/03/22 09:42:54;;;;;;;;;4.75;3.50;;;;;;;;5111590;27;9911;-73
2023/03/22 09:45:24;;;;;;;;;2.00;2.00;;;;;;;;5110796;28;9762;-73
2023/03/22 09:47:52;;;;;;;;;4.00;3.00;;;;;;;;5111888;27;9708;-73
2023/03/22 09:50:21;;;;;;;;;6.00;4.00;;;;;;;;5112252;27;9916;-73
2023/03/22 09:52:47;;;;;;;;;3.75;3.75;;;;;;;;5110858;28;9863;-73
2023/03/22 09:55:16;;;;;;;;;5.00;4.00;;;;;;;;5112120;27;9897;-74
2023/03/22 09:57:43;;;;;;;;;3.25;2.00;;;;;;;;5112119;27;8995;-73
2023/03/22 10:00:11;;;;;;;;;2.00;2.00;;;;;;;;5111706;27;9674;-73
2023/03/22 10:02:40;;;;;;;;;2.00;1.25;;;;;;;;5112214;27;9674;-73
2023/03/22 10:05:05;;;;;;;;;2.00;2.00;;;;;;;;5111883;28;10775;-74
2023/03/22 10:07:37;;;;;;;;;3.00;3.00;;;;;;;;5111794;28;9708;-73
2023/03/22 10:10:12;;;;;;;;;3.00;3.00;;;;;;;;5111966;28;8803;-74
2023/03/22 10:12:46;;;;;;;;;4.75;3.75;;;;;;;;5110872;27;9633;-73
2023/03/22 10:15:19;;;;;;;;;3.50;3.00;;;;;;;;5111678;28;9783;-73
2023/03/22 10:17:51;;;;;;;;;6.25;4.75;;;;;;;;5111761;27;9848;-73
2023/03/22 10:20:28;;;;;;;;;3.00;3.00;;;;;;;;5110414;28;9794;-73
2023/03/22 10:22:55;;;;;;;;;3.00;3.00;;;;;;;;5111918;27;9862;-73
2023/03/22 10:25:23;;;;;;;;;5.00;3.50;;;;;;;;5111664;27;9708;-74
2023/03/22 10:27:49;;;;;;;;;5.50;5.50;;;;;;;;5111532;27;9878;-75
2023/03/22 10:30:25;;;;;;;;;4.00;4.00;;;;;;;;5111379;27;9767;-74
2023/03/22 10:32:54;;;;;;;;;3.50;3.25;;;;;;;;5111708;27;9911;-75
2023/03/22 10:35:20;;;;;;;;;2.00;2.00;;;;;;;;5111516;27;9873;-74
2023/03/22 10:37:47;;;;;;;;;2.50;2.50;;;;;;;;5111425;28;9865;-74
2023/03/22 10:40:18;;;;;;;;;5.50;4.00;;;;;;;;5111885;27;8783;-74
2023/03/22 10:42:49;;;;;;;;;3.00;3.00;;;;;;;;5111335;27;10657;-74
2023/03/22 10:45:14;;;;;;;;;3.50;3.00;;;;;;;;5111162;27;9846;-74
2023/03/22 10:47:47;;;;;;;;;4.50;3.75;;;;;;;;5111278;27;10691;-74
2023/03/22 10:50:17;;;;;;;;;4.75;3.75;;;;;;;;5111280;27;8781;-74
2023/03/22 10:52:56;;;;;;;;;7.00;5.50;;;;;;;;5111523;27;9926;-74
2023/03/22 10:55:23;;;;;;;;;5.00;4.00;;;;;;;;5111214;27;9802;-74
2023/03/22 10:58:07;;;;;;;;;3.25;2.75;;;;;;;;5111178;27;9880;-74
2023/03/22 11:00:32;;;;;;;;;3.25;3.00;;;;;;;;5111115;28;10757;-74
2023/03/22 11:02:59;;;;;;;;;4.00;4.00;;;;;;;;5110954;28;9866;-74
2023/03/22 11:05:25;;;;;;;;;2.75;2.75;;;;;;;;5111313;27;8872;-74
2023/03/22 11:07:51;;;;;;;;;4.00;3.25;;;;;;;;5111353;27;9771;-74
2023/03/22 11:10:22;;;;;;;;;3.00;3.00;;;;;;;;5110319;28;9869;-74
2023/03/22 11:12:52;;;;;;;;;3.50;2.75;;;;;;;;5111119;28;9548;-75
2023/03/22 11:15:37;;;;;;;;;4.00;3.00;;;;;;;;5111034;27;9649;-74
2023/03/22 11:18:10;;;;;;;;;4.75;4.75;;;;;;;;5111156;28;9727;-75
2023/03/22 11:20:38;;;;;;;;;4.00;4.00;;;;;;;;5112895;27;9834;-74
2023/03/22 11:23:04;;;;;;;;;5.00;4.00;;;;;;;;5112819;28;9759;-74
2023/03/22 11:25:31;;;;;;;;;4.00;4.00;;;;;;;;5115604;27;9937;-74
2023/03/22 11:28:15;;;;;;;;;4.00;4.00;;;;;;;;5115464;27;9864;-74
2023/03/22 11:30:55;;;;;;;;;4.00;4.00;;;;;;;;5114636;27;9913;-74
2023/03/22 11:33:21;;;;;;;;;4.25;4.25;;;;;;;;5114254;27;9670;-74
2023/03/22 11:35:52;;;;;;;;;3.25;3.25;;;;;;;;5113965;28;9712;-73
2023/03/22 11:38:29;;;;;;;;;2.00;2.00;;;;;;;;5114401;27;8867;-73
2023/03/22 11:40:57;;;;;;;;;7.25;6.00;;;;;;;;5114273;28;9611;-73
2023/03/22 11:43:25;;;;;;;;;4.50;3.75;;;;;;;;5113781;27;9836;-73
2023/03/22 11:45:53;;;;;;;;;4.50;3.50;;;;;;;;5112984;28;10816;-73
2023/03/22 11:48:23;;;;;;;;;2.75;2.75;;;;;;;;5114073;27;9687;-73
2023/03/22 11:50:51;;;;;;;;;5.00;4.50;;;;;;;;5113994;27;9860;-73
2023/03/22 11:53:18;;;;;;;;;5.00;5.00;;;;;;;;5113951;27;9591;-73
2023/03/22 11:55:44;;;;;;;;;3.00;3.00;;;;;;;;5113596;27;9926;-74
2023/03/22 11:58:25;;;;;;;;;3.00;3.00;;;;;;;;5113932;27;9785;-74
2023/03/22 12:00:52;;;;;;;;;4.25;3.25;;;;;;;;5113784;27;9795;-73
2023/03/22 12:03:20;;;;;;;;;4.00;4.00;;;;;;;;5113665;27;9796;-73
2023/03/22 12:05:48;;;;;;;;;3.75;3.75;;;;;;;;5114041;27;9788;-73
2023/03/22 12:08:31;;;;;;;;;2.00;2.00;;;;;;;;5113807;27;9604;-73
2023/03/22 12:11:07;;;;;;;;;5.00;3.25;;;;;;;;5104913;28;9703;-73
2023/03/22 12:13:43;;;;;;;;;3.25;3.00;;;;;;;;5092979;28;9810;-72
2023/03/22 12:16:11;;;;;;;;;4.25;2.00;;;;;;;;5093070;28;9787;-72
2023/03/22 12:18:56;;;;;;;;;4.25;4.25;;;;;;;;5092921;28;9685;-73
2023/03/22 12:21:21;;;;;;;;;3.75;2.75;;;;;;;;5093283;28;10529;-73
2023/03/22 12:23:47;;;;;;;;;5.75;3.25;;;;;;;;5093060;28;9734;-72
2023/03/22 12:26:17;;;;;;;;;3.50;3.50;;;;;;;;5091407;28;8827;-72
2023/03/22 12:28:52;;;;;;;;;0.00;0.00;;;;;;;;5092986;28;8759;-73
2023/03/22 12:31:20;;;;;;;;;4.00;3.00;;;;;;;;5092912;28;9867;-72
2023/03/22 12:33:50;;;;;;;;;3.50;3.00;;;;;;;;5092978;28;9835;-72
2023/03/22 12:36:16;;;;;;;;;2.75;1.75;;;;;;;;5092062;28;9720;-72
2023/03/22 12:39:00;;;;;;;;;2.00;2.00;;;;;;;;5093093;28;9594;-74
2023/03/22 12:41:25;;;;;;;;;3.50;3.25;;;;;;;;5091895;27;9541;-74
2023/03/22 12:44:09;;;;;;;;;3.00;3.00;;;;;;;;5113216;28;9790;-74
2023/03/22 12:46:37;;;;;;;;;4.00;4.00;;;;;;;;5113115;28;8890;-74
2023/03/22 12:49:12;;;;;;;;;0.75;0.75;;;;;;;;5113406;27;9680;-74
2023/03/22 12:51:37;;;;;;;;;4.75;4.25;;;;;;;;5112151;28;9618;-74
2023/03/22 12:54:02;;;;;;;;;4.50;3.25;;;;;;;;5111533;28;10458;-74
2023/03/22 12:56:48;;;;;;;;;4.00;4.00;;;;;;;;5112178;27;8812;-73
2023/03/22 12:59:21;;;;;;;;;6.25;5.00;;;;;;;;5111652;28;8789;-73
2023/03/22 13:01:51;;;;;;;;;5.25;5.25;;;;;;;;5112670;27;9630;-73
2023/03/22 13:04:42;;;;;;;;;7.50;5.75;;;;;;;;5112889;27;9698;-73
2023/03/22 13:07:07;;;;;;;;;5.25;5.00;;;;;;;;5103039;28;9811;-73
2023/03/22 13:09:39;;;;;;;;;3.00;3.00;;;;;;;;5112890;28;9704;-73
2023/03/22 13:12:16;;;;;;;;;3.00;3.00;;;;;;;;5112939;27;8772;-73
2023/03/22 13:15:00;;;;;;;;;4.50;4.50;;;;;;;;5112706;28;9696;-73
2023/03/22 13:17:26;;;;;;;;;3.25;3.25;;;;;;;;5111174;28;9828;-73
2023/03/22 13:19:54;;;;;;;;;3.50;2.25;;;;;;;;5112783;27;9896;-73
2023/03/22 13:22:48;;;;;;;;;4.00;4.00;;;;;;;;5112765;28;9531;-73
2023/03/22 13:25:17;;;;;;;;;2.75;2.75;;;;;;;;5111091;28;9638;-73
2023/03/22 13:28:03;;;;;;;;;4.50;3.00;;;;;;;;5112676;27;9804;-73
2023/03/22 13:30:35;;;;;;;;;4.25;4.25;;;;;;;;5112535;27;9547;-74
2023/03/22 13:33:11;;;;;;;;;3.00;3.00;;;;;;;;5111278;28;9712;-73
2023/03/22 13:35:49;;;;;;;;;3.25;3.00;;;;;;;;5112238;27;9824;-74
2023/03/22 13:38:33;;;;;;;;;4.25;3.25;;;;;;;;5110965;28;9726;-74
2023/03/22 13:40:58;;;;;;;;;3.00;3.00;;;;;;;;5112386;27;9641;-74
2023/03/22 13:43:28;;;;;;;;;3.00;2.75;;;;;;;;5112250;27;9638;-73
2023/03/22 13:46:03;;;;;;;;;4.00;4.00;;;;;;;;5110245;28;8769;-73
2023/03/22 13:48:42;;;;;;;;;3.50;3.50;;;;;;;;5111653;28;9611;-73
2023/03/22 13:51:24;;;;;;;;;7.25;4.25;;;;;;;;5112092;27;9463;-74
2023/03/22 13:54:07;;;;;;;;;5.00;4.00;;;;;;;;5111891;27;9761;-74
2023/03/22 13:56:53;;;;;;;;;6.50;5.25;;;;;;;;5111940;28;9705;-74
2023/03/22 13:59:18;;;;;;;;;4.00;4.00;;;;;;;;5112046;27;9769;-74
2023/03/22 14:01:51;;;;;;;;;7.25;4.50;;;;;;;;5112167;28;9877;-73
2023/03/22 14:04:21;;;;;;;;;5.25;4.25;;;;;;;;5112245;27;8745;-74
2023/03/22 14:06:54;;;;;;;;;6.50;5.25;;;;;;;;5111803;27;9790;-73
2023/03/22 14:09:31;;;;;;;;;4.00;4.00;;;;;;;;5112028;27;10450;-73
2023/03/22 14:12:04;;;;;;;;;4.25;4.25;;;;;;;;5110735;28;9607;-73
2023/03/22 14:14:34;;;;;;;;;2.50;2.50;;;;;;;;5111804;27;9760;-73
2023/03/22 14:17:03;;;;;;;;;9.25;5.75;;;;;;;;5111863;27;9880;-73
2023/03/22 14:19:31;;;;;;;;;4.00;4.00;;;;;;;;5111825;27;9692;-74
2023/03/22 14:22:00;;;;;;;;;4.00;4.00;;;;;;;;5111611;27;9608;-73
2023/03/22 14:24:28;;;;;;;;;4.75;3.50;;;;;;;;5111829;27;9596;-73
2023/03/22 14:26:54;;;;;;;;;3.25;2.50;;;;;;;;5111669;27;10499;-73
2023/03/22 14:29:21;;;;;;;;;5.00;5.00;;;;;;;;5111825;27;9652;-74
2023/03/22 14:31:55;;;;;;;;;2.50;2.50;;;;;;;;5111804;27;9615;-74
2023/03/22 14:34:21;;;;;;;;;4.25;3.50;;;;;;;;5111829;27;10626;-73
2023/03/22 14:36:50;;;;;;;;;6.00;5.00;;;;;;;;5111055;27;9670;-74
2023/03/22 14:39:20;;;;;;;;;3.50;3.50;;;;;;;;5111550;27;8761;-73
2023/03/22 14:41:56;;;;;;;;;7.00;5.75;;;;;;;;5111971;27;9731;-73
2023/03/22 14:44:21;;;;;;;;;5.00;4.00;;;;;;;;5112019;27;9672;-73
2023/03/22 14:46:46;;;;;;;;;5.75;4.75;;;;;;;;5111683;27;9622;-75
2023/03/22 14:49:14;;;;;;;;;5.25;5.25;;;;;;;;5110071;28;9754;-75
2023/03/22 14:51:40;;;;;;;;;4.00;4.00;;;;;;;;5112371;27;8769;-74
2023/03/22 14:54:10;;;;;;;;;4.00;4.00;;;;;;;;5113339;27;9480;-74
2023/03/22 14:56:38;;;;;;;;;3.75;3.75;;;;;;;;5113017;27;9674;-74
2023/03/22 14:59:04;;;;;;;;;4.75;4.75;;;;;;;;5114750;27;9620;-74
2023/03/22 15:01:50;;;;;;;;;4.00;4.00;;;;;;;;5115653;27;9768;-73